createdAt,value
2018-08-17T00:00:37.544Z,1007.39
2018-08-17T00:01:58.469Z,1007.36
2018-08-17T00:02:37.407Z,1007.34
2018-08-17T00:03:37.333Z,1007.33
2018-08-17T00:04:58.253Z,1007.35
2018-08-17T00:05:37.198Z,1007.30
2018-08-17T00:06:58.113Z,1007.30
2018-08-17T00:07:37.067Z,1007.28
2018-08-17T00:08:36.996Z,1007.30
2018-08-17T00:09:57.907Z,1007.31
2018-08-17T00:10:36.851Z,1007.31
2018-08-17T00:11:57.773Z,1007.35
2018-08-17T00:12:36.708Z,1007.32
2018-08-17T00:13:36.640Z,1007.28
2018-08-17T00:14:57.555Z,1007.29
2018-08-17T00:15:36.505Z,1007.29
2018-08-17T00:16:57.419Z,1007.28
2018-08-17T00:17:36.371Z,1007.25
2018-08-17T00:18:36.297Z,1007.24
2018-08-17T00:19:57.211Z,1007.25
2018-08-17T00:20:36.156Z,1007.22
2018-08-17T00:21:57.101Z,1007.22
2018-08-17T00:22:36.017Z,1007.18
2018-08-17T00:23:35.956Z,1007.22
2018-08-17T00:24:56.862Z,1007.21
2018-08-17T00:25:35.813Z,1007.16
2018-08-17T00:26:56.720Z,1007.17
2018-08-17T00:27:35.674Z,1007.20
2018-08-17T00:28:35.607Z,1007.17
2018-08-17T00:29:56.520Z,1007.16
2018-08-17T00:30:35.463Z,1007.21
2018-08-17T00:31:56.374Z,1007.16
2018-08-17T00:32:35.323Z,1007.18
2018-08-17T00:33:35.255Z,1007.18
2018-08-17T00:34:56.171Z,1007.17
2018-08-17T00:35:35.110Z,1007.14
2018-08-17T00:36:56.028Z,1007.11
2018-08-17T00:37:34.974Z,1007.10
2018-08-17T00:38:34.902Z,1007.07
2018-08-17T00:39:55.822Z,1007.10
2018-08-17T00:40:34.765Z,1007.05
2018-08-17T00:41:55.685Z,1007.04
2018-08-17T00:42:34.628Z,1007.08
2018-08-17T00:43:34.560Z,1007.08
2018-08-17T00:44:55.468Z,1007.10
2018-08-17T00:45:34.419Z,1007.08
2018-08-17T00:46:55.361Z,1007.08
2018-08-17T00:47:34.277Z,1007.07
2018-08-17T00:48:34.209Z,1007.06
2018-08-17T00:49:55.120Z,1007.06
2018-08-17T00:50:34.073Z,1007.07
2018-08-17T00:51:54.985Z,1007.07
2018-08-17T00:52:33.955Z,1007.06
2018-08-17T00:53:33.860Z,1007.07
2018-08-17T00:54:54.784Z,1007.07
2018-08-17T00:55:33.766Z,1007.08
2018-08-17T00:56:54.642Z,1007.08
2018-08-17T00:57:33.590Z,1007.06
2018-08-17T00:58:33.520Z,1007.11
2018-08-17T00:59:54.423Z,1007.08
2018-08-17T01:00:33.368Z,1007.09
2018-08-17T01:01:54.282Z,1007.11
2018-08-17T01:02:33.234Z,1007.08
2018-08-17T01:03:33.161Z,1007.13
2018-08-17T01:04:54.073Z,1007.11
2018-08-17T01:05:33.020Z,1007.10
2018-08-17T01:06:53.935Z,1007.11
2018-08-17T01:07:32.876Z,1007.12
2018-08-17T01:08:32.804Z,1007.13
2018-08-17T01:09:53.720Z,1007.16
2018-08-17T01:10:32.669Z,1007.19
2018-08-17T01:11:53.590Z,1007.21
2018-08-17T01:12:32.525Z,1007.18
2018-08-17T01:13:32.454Z,1007.28
2018-08-17T01:14:53.372Z,1007.25
2018-08-17T01:15:32.317Z,1007.28
2018-08-17T01:16:53.229Z,1007.26
2018-08-17T01:17:32.178Z,1007.26
2018-08-17T01:18:32.107Z,1007.31
2018-08-17T01:19:53.025Z,1007.29
2018-08-17T01:20:31.964Z,1007.32
2018-08-17T01:21:52.883Z,1007.36
2018-08-17T01:22:31.827Z,1007.36
2018-08-17T01:23:31.753Z,1007.35
2018-08-17T01:24:52.669Z,1007.42
2018-08-17T01:25:31.618Z,1007.42
2018-08-17T01:26:52.532Z,1007.41
2018-08-17T01:27:31.475Z,1007.41
2018-08-17T01:28:31.404Z,1007.38
2018-08-17T01:29:52.315Z,1007.37
2018-08-17T01:30:31.263Z,1007.38
2018-08-17T01:31:52.173Z,1007.38
2018-08-17T01:32:31.118Z,1007.37
2018-08-17T01:33:31.048Z,1007.36
2018-08-17T01:34:51.963Z,1007.37
2018-08-17T01:35:30.907Z,1007.39
2018-08-17T01:36:51.821Z,1007.38
2018-08-17T01:37:30.779Z,1007.46
2018-08-17T01:38:30.703Z,1007.47
2018-08-17T01:39:51.616Z,1007.46
2018-08-17T01:40:30.557Z,1007.47
2018-08-17T01:41:51.469Z,1007.46
2018-08-17T01:42:30.417Z,1007.46
2018-08-17T01:43:30.347Z,1007.46
2018-08-17T01:44:51.263Z,1007.46
2018-08-17T01:45:30.201Z,1007.46
2018-08-17T01:46:51.131Z,1007.49
2018-08-17T01:47:30.062Z,1007.49
2018-08-17T01:48:29.996Z,1007.50
2018-08-17T01:49:50.907Z,1007.50
2018-08-17T01:50:29.867Z,1007.46
2018-08-17T01:51:50.762Z,1007.49
2018-08-17T01:52:29.714Z,1007.50
2018-08-17T01:53:29.644Z,1007.56
2018-08-17T01:54:50.555Z,1007.51
2018-08-17T01:55:29.501Z,1007.56
2018-08-17T01:56:50.416Z,1007.57
2018-08-17T01:57:29.355Z,1007.60
2018-08-17T01:58:29.287Z,1007.60
2018-08-17T01:59:50.209Z,1007.58
2018-08-17T02:00:29.146Z,1007.59
2018-08-17T02:01:50.058Z,1007.62
2018-08-17T02:02:29.005Z,1007.64
2018-08-17T02:03:28.934Z,1007.68
2018-08-17T02:04:49.846Z,1007.70
2018-08-17T02:05:28.793Z,1007.73
2018-08-17T02:06:49.710Z,1007.77
2018-08-17T02:07:28.650Z,1007.77
2018-08-17T02:08:28.578Z,1007.76
2018-08-17T02:09:49.495Z,1007.81
2018-08-17T02:10:28.440Z,1007.80
2018-08-17T02:11:49.350Z,1007.85
2018-08-17T02:12:28.302Z,1007.87
2018-08-17T02:13:28.224Z,1007.88
2018-08-17T02:14:49.149Z,1007.88
2018-08-17T02:15:28.083Z,1007.90
2018-08-17T02:16:48.997Z,1007.95
2018-08-17T02:17:27.945Z,1007.96
2018-08-17T02:18:27.875Z,1007.90
2018-08-17T02:19:48.786Z,1007.95
2018-08-17T02:20:27.730Z,1007.99
2018-08-17T02:21:48.641Z,1007.97
2018-08-17T02:22:27.591Z,1008.01
2018-08-17T02:23:27.521Z,1008.05
2018-08-17T02:24:48.434Z,1007.99
2018-08-17T02:25:27.379Z,1008.00
2018-08-17T02:26:48.286Z,1008.05
2018-08-17T02:27:27.238Z,1008.08
2018-08-17T02:28:27.167Z,1008.13
2018-08-17T02:29:48.079Z,1008.14
2018-08-17T02:30:27.020Z,1008.16
2018-08-17T02:31:47.939Z,1008.18
2018-08-17T02:32:26.884Z,1008.13
2018-08-17T02:33:26.810Z,1008.16
2018-08-17T02:34:47.728Z,1008.15
2018-08-17T02:35:26.669Z,1008.15
2018-08-17T02:36:47.589Z,1008.15
2018-08-17T02:37:26.525Z,1008.15
2018-08-17T02:38:26.453Z,1008.20
2018-08-17T02:39:47.371Z,1008.21
2018-08-17T02:40:26.315Z,1008.19
2018-08-17T02:41:47.227Z,1008.20
2018-08-17T02:42:26.172Z,1008.23
2018-08-17T02:43:26.101Z,1008.26
2018-08-17T02:44:47.013Z,1008.24
2018-08-17T02:45:25.960Z,1008.22
2018-08-17T02:46:46.871Z,1008.22
2018-08-17T02:47:25.822Z,1008.19
2018-08-17T02:48:25.748Z,1008.22
2018-08-17T02:49:46.665Z,1008.22
2018-08-17T02:50:25.605Z,1008.20
2018-08-17T02:51:46.528Z,1008.21
2018-08-17T02:52:25.464Z,1008.23
2018-08-17T02:53:25.396Z,1008.28
2018-08-17T02:54:46.307Z,1008.30
2018-08-17T02:55:25.254Z,1008.29
2018-08-17T02:56:46.168Z,1008.28
2018-08-17T02:57:25.112Z,1008.26
2018-08-17T02:58:25.038Z,1008.26
2018-08-17T02:59:45.955Z,1008.27
2018-08-17T03:00:24.898Z,1008.29
2018-08-17T03:01:45.811Z,1008.28
2018-08-17T03:02:24.756Z,1008.28
2018-08-17T03:03:24.687Z,1008.31
2018-08-17T03:04:45.602Z,1008.36
2018-08-17T03:05:24.564Z,1008.35
2018-08-17T03:06:45.467Z,1008.32
2018-08-17T03:07:24.438Z,1008.28
2018-08-17T03:08:24.334Z,1008.32
2018-08-17T03:09:45.254Z,1008.38
2018-08-17T03:10:24.192Z,1008.38
2018-08-17T03:11:45.102Z,1008.40
2018-08-17T03:12:24.061Z,1008.36
2018-08-17T03:13:23.987Z,1008.35
2018-08-17T03:14:44.894Z,1008.34
2018-08-17T03:15:23.836Z,1008.32
2018-08-17T03:16:44.751Z,1008.33
2018-08-17T03:17:23.696Z,1008.33
2018-08-17T03:18:23.627Z,1008.32
2018-08-17T03:19:44.537Z,1008.26
2018-08-17T03:20:23.490Z,1008.26
2018-08-17T03:21:44.397Z,1008.22
2018-08-17T03:22:23.342Z,1008.24
2018-08-17T03:23:23.275Z,1008.21
2018-08-17T03:24:44.190Z,1008.24
2018-08-17T03:25:23.135Z,1008.17
2018-08-17T03:26:44.042Z,1008.15
2018-08-17T03:27:22.994Z,1008.10
2018-08-17T03:28:22.921Z,1007.98
2018-08-17T03:29:43.833Z,1008.01
2018-08-17T03:30:22.781Z,1008.05
2018-08-17T03:31:43.689Z,1008.19
2018-08-17T03:32:22.635Z,1008.21
2018-08-17T03:33:22.566Z,1008.23
2018-08-17T03:34:43.479Z,1008.18
2018-08-17T03:35:22.426Z,1008.11
2018-08-17T03:36:43.343Z,1008.08
2018-08-17T03:37:22.287Z,1008.17
2018-08-17T03:38:22.217Z,1008.24
2018-08-17T03:39:43.131Z,1008.32
2018-08-17T03:40:22.073Z,1008.27
2018-08-17T03:41:42.987Z,1008.27
2018-08-17T03:42:21.932Z,1008.22
2018-08-17T03:43:21.860Z,1008.20
2018-08-17T03:44:42.780Z,1008.27
2018-08-17T03:45:21.724Z,1008.33
2018-08-17T03:46:42.638Z,1008.38
2018-08-17T03:47:21.578Z,1008.37
2018-08-17T03:48:21.508Z,1008.35
2018-08-17T03:49:42.427Z,1008.33
2018-08-17T03:50:21.366Z,1008.28
2018-08-17T03:51:42.286Z,1008.26
2018-08-17T03:52:21.223Z,1008.18
2018-08-17T03:53:21.156Z,1008.15
2018-08-17T03:54:42.068Z,1008.09
2018-08-17T03:55:21.020Z,1007.98
2018-08-17T03:56:41.930Z,1007.93
2018-08-17T03:57:20.876Z,1007.90
2018-08-17T03:58:20.805Z,1007.96
2018-08-17T03:59:41.712Z,1007.98
2018-08-17T04:00:20.660Z,1008.07
2018-08-17T04:01:41.578Z,1008.21
2018-08-17T04:02:20.523Z,1008.30
2018-08-17T04:03:20.450Z,1008.40
2018-08-17T04:04:41.369Z,1008.44
2018-08-17T04:05:20.312Z,1008.48
2018-08-17T04:06:41.222Z,1008.46
2018-08-17T04:07:20.171Z,1008.42
2018-08-17T04:08:20.104Z,1008.37
2018-08-17T04:09:41.016Z,1008.39
2018-08-17T04:10:19.954Z,1008.42
2018-08-17T04:11:40.865Z,1008.52
2018-08-17T04:12:19.818Z,1008.60
2018-08-17T04:13:19.751Z,1008.70
2018-08-17T04:14:40.660Z,1008.76
2018-08-17T04:15:19.657Z,1008.81
2018-08-17T04:16:40.517Z,1008.81
2018-08-17T04:17:19.460Z,1008.83
2018-08-17T04:18:19.395Z,1008.80
2018-08-17T04:19:40.308Z,1008.78
2018-08-17T04:20:19.252Z,1008.80
2018-08-17T04:21:40.164Z,1008.84
2018-08-17T04:22:19.110Z,1008.91
2018-08-17T04:23:19.036Z,1008.92
2018-08-17T04:24:39.952Z,1008.94
2018-08-17T04:25:18.895Z,1008.97
2018-08-17T04:26:39.809Z,1008.96
2018-08-17T04:27:18.754Z,1008.97
2018-08-17T04:28:18.692Z,1008.94
2018-08-17T04:29:39.599Z,1008.94
2018-08-17T04:30:18.549Z,1008.95
2018-08-17T04:31:39.458Z,1009.02
2018-08-17T04:32:18.397Z,1008.98
2018-08-17T04:33:18.341Z,1009.00
2018-08-17T04:34:39.245Z,1009.03
2018-08-17T04:35:18.221Z,1008.99
2018-08-17T04:36:39.106Z,1009.02
2018-08-17T04:37:18.052Z,1009.04
2018-08-17T04:38:17.980Z,1009.06
2018-08-17T04:39:38.893Z,1009.09
2018-08-17T04:40:17.837Z,1009.08
2018-08-17T04:41:38.750Z,1009.08
2018-08-17T04:42:17.702Z,1009.10
2018-08-17T04:43:17.622Z,1009.12
2018-08-17T04:44:38.548Z,1009.09
2018-08-17T04:45:17.484Z,1009.14
2018-08-17T04:46:38.429Z,1009.11
2018-08-17T04:47:17.344Z,1009.15
2018-08-17T04:48:17.273Z,1009.18
2018-08-17T04:49:38.197Z,1009.23
2018-08-17T04:50:17.140Z,1009.30
2018-08-17T04:51:38.042Z,1009.33
2018-08-17T04:52:16.990Z,1009.32
2018-08-17T04:53:16.924Z,1009.36
2018-08-17T04:54:37.832Z,1009.30
2018-08-17T04:55:16.777Z,1009.32
2018-08-17T04:56:37.686Z,1009.34
2018-08-17T04:57:16.638Z,1009.35
2018-08-17T04:58:16.565Z,1009.33
2018-08-17T04:59:37.477Z,1009.40
2018-08-17T05:00:16.429Z,1009.41
2018-08-17T05:01:37.333Z,1009.42
2018-08-17T05:02:16.289Z,1009.41
2018-08-17T05:03:16.219Z,1009.41
2018-08-17T05:04:37.128Z,1009.44
2018-08-17T05:05:16.070Z,1009.41
2018-08-17T05:06:36.987Z,1009.45
2018-08-17T05:07:15.925Z,1009.51
2018-08-17T05:08:15.867Z,1009.49
2018-08-17T05:09:36.771Z,1009.53
2018-08-17T05:10:15.717Z,1009.55
2018-08-17T05:11:36.640Z,1009.63
2018-08-17T05:12:15.577Z,1009.62
2018-08-17T05:13:15.509Z,1009.59
2018-08-17T05:14:36.422Z,1009.59
2018-08-17T05:15:15.367Z,1009.65
2018-08-17T05:16:36.280Z,1009.62
2018-08-17T05:17:15.230Z,1009.61
2018-08-17T05:18:15.156Z,1009.62
2018-08-17T05:19:36.067Z,1009.62
2018-08-17T05:20:15.009Z,1009.64
2018-08-17T05:21:36.049Z,1009.63
2018-08-17T05:22:14.886Z,1009.67
2018-08-17T05:23:14.853Z,1009.64
2018-08-17T05:24:35.724Z,1009.70
2018-08-17T05:25:14.672Z,1009.75
2018-08-17T05:26:35.581Z,1009.72
2018-08-17T05:27:14.523Z,1009.74
2018-08-17T05:28:14.455Z,1009.88
2018-08-17T05:29:35.362Z,1009.88
2018-08-17T05:30:14.337Z,1009.90
2018-08-17T05:31:35.226Z,1009.91
2018-08-17T05:32:14.168Z,1010.00
2018-08-17T05:33:14.101Z,1010.03
2018-08-17T05:34:35.015Z,1010.02
2018-08-17T05:35:13.960Z,1010.03
2018-08-17T05:36:34.878Z,1010.07
2018-08-17T05:37:13.816Z,1010.08
2018-08-17T05:38:13.751Z,1010.13
2018-08-17T05:39:34.662Z,1010.13
2018-08-17T05:40:13.612Z,1010.17
2018-08-17T05:41:34.528Z,1010.17
2018-08-17T05:42:13.468Z,1010.18
2018-08-17T05:43:13.399Z,1010.16
2018-08-17T05:44:34.353Z,1010.17
2018-08-17T05:45:13.344Z,1010.21
2018-08-17T05:46:34.173Z,1010.23
2018-08-17T05:47:13.122Z,1010.21
2018-08-17T05:48:13.050Z,1010.26
2018-08-17T05:49:33.962Z,1010.28
2018-08-17T05:50:12.916Z,1010.31
2018-08-17T05:51:33.823Z,1010.32
2018-08-17T05:52:12.766Z,1010.34
2018-08-17T05:53:12.696Z,1010.37
2018-08-17T05:54:33.614Z,1010.34
2018-08-17T05:55:12.558Z,1010.41
2018-08-17T05:56:33.505Z,1010.45
2018-08-17T05:57:12.423Z,1010.52
2018-08-17T05:58:12.347Z,1010.63
2018-08-17T05:59:33.260Z,1010.67
2018-08-17T06:00:12.206Z,1010.73
2018-08-17T06:01:33.119Z,1010.76
2018-08-17T06:02:12.068Z,1010.81
2018-08-17T06:03:12.003Z,1010.85
2018-08-17T06:04:32.913Z,1010.87
2018-08-17T06:05:11.860Z,1010.91
2018-08-17T06:06:32.781Z,1010.94
2018-08-17T06:07:11.732Z,1011.00
2018-08-17T06:08:11.654Z,1011.07
2018-08-17T06:09:32.564Z,1011.08
2018-08-17T06:10:11.530Z,1011.12
2018-08-17T06:11:32.447Z,1011.16
2018-08-17T06:12:11.377Z,1011.22
2018-08-17T06:13:11.309Z,1011.21
2018-08-17T06:14:32.242Z,1011.21
2018-08-17T06:15:11.160Z,1011.22
2018-08-17T06:16:32.081Z,1011.12
2018-08-17T06:17:11.021Z,1011.14
2018-08-17T06:18:10.956Z,1011.11
2018-08-17T06:19:31.863Z,1011.09
2018-08-17T06:20:10.810Z,1011.06
2018-08-17T06:21:31.725Z,1011.00
2018-08-17T06:22:10.672Z,1011.04
2018-08-17T06:23:10.608Z,1011.04
2018-08-17T06:24:31.518Z,1010.97
2018-08-17T06:25:10.464Z,1010.96
2018-08-17T06:26:31.378Z,1010.97
2018-08-17T06:27:10.323Z,1010.91
2018-08-17T06:28:10.253Z,1010.88
2018-08-17T06:29:31.171Z,1010.88
2018-08-17T06:30:10.121Z,1010.85
2018-08-17T06:31:31.043Z,1010.89
2018-08-17T06:32:09.990Z,1010.86
2018-08-17T06:33:09.913Z,1010.86
2018-08-17T06:34:30.821Z,1010.82
2018-08-17T06:35:09.769Z,1010.76
2018-08-17T06:36:30.680Z,1010.82
2018-08-17T06:37:09.744Z,1010.76
2018-08-17T06:38:09.561Z,1010.80
2018-08-17T06:39:30.469Z,1010.76
2018-08-17T06:40:09.436Z,1010.79
2018-08-17T06:41:30.334Z,1010.77
2018-08-17T06:42:09.292Z,1010.84
2018-08-17T06:43:09.216Z,1010.84
2018-08-17T06:44:30.133Z,1010.86
2018-08-17T06:45:09.078Z,1010.93
2018-08-17T06:46:29.991Z,1010.96
2018-08-17T06:47:08.932Z,1011.00
2018-08-17T06:48:08.860Z,1010.99
2018-08-17T06:49:29.783Z,1011.06
2018-08-17T06:50:08.730Z,1011.10
2018-08-17T06:51:29.643Z,1011.15
2018-08-17T06:52:08.587Z,1011.17
2018-08-17T06:53:08.517Z,1011.19
2018-08-17T06:54:29.430Z,1011.16
2018-08-17T06:55:08.378Z,1011.17
2018-08-17T06:56:29.296Z,1011.21
2018-08-17T06:57:08.287Z,1011.23
2018-08-17T06:58:08.177Z,1011.34
2018-08-17T06:59:29.084Z,1011.41
2018-08-17T07:00:08.047Z,1011.36
2018-08-17T07:01:28.956Z,1011.39
2018-08-17T07:02:07.895Z,1011.45
2018-08-17T07:03:07.826Z,1011.53
2018-08-17T07:04:28.743Z,1011.56
2018-08-17T07:05:07.690Z,1011.55
2018-08-17T07:06:28.608Z,1011.56
2018-08-17T07:07:07.546Z,1011.56
2018-08-17T07:08:07.485Z,1011.56
2018-08-17T07:09:28.448Z,1011.54
2018-08-17T07:10:07.344Z,1011.56
2018-08-17T07:11:28.262Z,1011.44
2018-08-17T07:12:07.208Z,1011.38
2018-08-17T07:13:07.132Z,1011.32
2018-08-17T07:14:28.053Z,1011.26
2018-08-17T07:15:06.994Z,1011.18
2018-08-17T07:16:27.948Z,1011.02
2018-08-17T07:17:06.866Z,1010.91
2018-08-17T07:18:06.789Z,1010.81
2018-08-17T07:19:27.698Z,1010.70
2018-08-17T07:20:06.651Z,1010.70
2018-08-17T07:21:27.587Z,1010.63
2018-08-17T07:22:06.516Z,1010.68
2018-08-17T07:23:06.457Z,1010.71
2018-08-17T07:24:27.357Z,1010.83
2018-08-17T07:25:06.308Z,1010.90
2018-08-17T07:26:27.217Z,1010.90
2018-08-17T07:27:06.162Z,1010.86
2018-08-17T07:28:06.115Z,1010.87
2018-08-17T07:29:27.008Z,1010.83
2018-08-17T07:30:05.971Z,1010.88
2018-08-17T07:31:26.883Z,1010.82
2018-08-17T07:32:05.825Z,1010.77
2018-08-17T07:33:05.746Z,1010.66
2018-08-17T07:34:26.660Z,1010.50
2018-08-17T07:35:05.616Z,1010.42
2018-08-17T07:36:26.522Z,1010.33
2018-08-17T07:37:05.462Z,1010.29
2018-08-17T07:38:05.394Z,1010.30
2018-08-17T07:39:26.323Z,1010.25
2018-08-17T07:40:05.259Z,1010.28
2018-08-17T07:41:26.177Z,1010.34
2018-08-17T07:42:05.114Z,1010.45
2018-08-17T07:43:05.052Z,1010.44
2018-08-17T07:44:25.968Z,1010.46
2018-08-17T07:45:04.913Z,1010.44
2018-08-17T07:46:25.821Z,1010.42
2018-08-17T07:47:04.766Z,1010.40
2018-08-17T07:48:04.787Z,1010.38
2018-08-17T07:49:25.616Z,1010.36
2018-08-17T07:50:04.567Z,1010.29
2018-08-17T07:51:25.475Z,1010.34
2018-08-17T07:52:04.419Z,1010.36
2018-08-17T07:53:04.356Z,1010.31
2018-08-17T07:54:25.264Z,1010.39
2018-08-17T07:55:04.217Z,1010.36
2018-08-17T07:56:25.128Z,1010.36
2018-08-17T07:57:04.074Z,1010.43
2018-08-17T07:58:04.009Z,1010.46
2018-08-17T07:59:24.924Z,1010.44
2018-08-17T08:00:03.869Z,1010.52
2018-08-17T08:01:24.779Z,1010.59
2018-08-17T08:02:03.734Z,1010.60
2018-08-17T08:03:03.656Z,1010.59
2018-08-17T08:04:24.569Z,1010.63
2018-08-17T08:05:03.513Z,1010.62
2018-08-17T08:06:24.432Z,1010.66
2018-08-17T08:07:03.379Z,1010.65
2018-08-17T08:08:03.305Z,1010.66
2018-08-17T08:09:24.230Z,1010.68
2018-08-17T08:10:03.192Z,1010.72
2018-08-17T08:11:24.085Z,1010.77
2018-08-17T08:12:03.031Z,1010.79
2018-08-17T08:13:02.972Z,1010.89
2018-08-17T08:14:23.880Z,1010.92
2018-08-17T08:15:02.828Z,1010.93
2018-08-17T08:16:23.741Z,1010.99
2018-08-17T08:17:02.688Z,1011.00
2018-08-17T08:18:02.621Z,1010.98
2018-08-17T08:19:23.538Z,1010.96
2018-08-17T08:20:02.481Z,1010.97
2018-08-17T08:21:23.393Z,1010.98
2018-08-17T08:22:02.343Z,1011.01
2018-08-17T08:23:02.275Z,1011.00
2018-08-17T08:24:23.187Z,1011.04
2018-08-17T08:25:02.150Z,1011.00
2018-08-17T08:26:23.056Z,1010.98
2018-08-17T08:27:02.010Z,1010.93
2018-08-17T08:28:01.931Z,1010.92
2018-08-17T08:29:22.848Z,1010.86
2018-08-17T08:30:01.821Z,1010.77
2018-08-17T08:31:22.725Z,1010.69
2018-08-17T08:32:01.658Z,1010.61
2018-08-17T08:33:01.594Z,1010.56
2018-08-17T08:34:22.507Z,1010.50
2018-08-17T08:35:01.451Z,1010.44
2018-08-17T08:36:22.365Z,1010.45
2018-08-17T08:37:01.318Z,1010.55
2018-08-17T08:38:01.248Z,1010.62
2018-08-17T08:39:22.162Z,1010.72
2018-08-17T08:40:01.159Z,1010.78
2018-08-17T08:41:22.029Z,1010.87
2018-08-17T08:42:00.981Z,1010.90
2018-08-17T08:43:00.917Z,1010.89
2018-08-17T08:44:21.826Z,1010.84
2018-08-17T08:45:00.775Z,1010.82
2018-08-17T08:46:21.689Z,1010.86
2018-08-17T08:47:00.637Z,1010.84
2018-08-17T08:48:00.569Z,1010.92
2018-08-17T08:49:21.491Z,1010.94
2018-08-17T08:50:00.434Z,1011.02
2018-08-17T08:51:21.358Z,1011.07
2018-08-17T08:52:00.301Z,1011.13
2018-08-17T08:53:00.229Z,1011.16
2018-08-17T08:54:21.158Z,1011.14
2018-08-17T08:55:00.102Z,1011.15
2018-08-17T08:56:21.025Z,1011.15
2018-08-17T08:56:59.969Z,1011.20
2018-08-17T08:57:59.895Z,1011.20
2018-08-17T08:59:20.814Z,1011.27
2018-08-17T08:59:59.756Z,1011.31
2018-08-17T09:01:20.676Z,1011.32
2018-08-17T09:01:59.636Z,1011.30
2018-08-17T09:02:59.556Z,1011.30
2018-08-17T09:04:20.468Z,1011.29
2018-08-17T09:04:59.427Z,1011.27
2018-08-17T09:06:20.340Z,1011.28
2018-08-17T09:06:59.282Z,1011.31
2018-08-17T09:07:59.219Z,1011.33
2018-08-17T09:09:20.128Z,1011.34
2018-08-17T09:09:59.080Z,1011.45
2018-08-17T09:11:20.010Z,1011.48
2018-08-17T09:11:58.936Z,1011.55
2018-08-17T09:12:58.888Z,1011.59
2018-08-17T09:14:19.788Z,1011.65
2018-08-17T09:14:58.738Z,1011.69
2018-08-17T09:16:19.647Z,1011.71
2018-08-17T09:16:58.604Z,1011.74
2018-08-17T09:17:58.534Z,1011.73
2018-08-17T09:19:19.442Z,1011.67
2018-08-17T09:19:58.390Z,1011.70
2018-08-17T09:21:19.304Z,1011.64
2018-08-17T09:21:58.281Z,1011.68
2018-08-17T09:22:58.183Z,1011.65
2018-08-17T09:24:19.097Z,1011.68
2018-08-17T09:24:58.047Z,1011.70
2018-08-17T09:26:18.961Z,1011.69
2018-08-17T09:26:57.907Z,1011.64
2018-08-17T09:27:57.839Z,1011.65
2018-08-17T09:29:18.869Z,1011.63
2018-08-17T09:29:57.721Z,1011.57
2018-08-17T09:31:18.621Z,1011.55
2018-08-17T09:31:57.579Z,1011.50
2018-08-17T09:32:57.508Z,1011.51
2018-08-17T09:34:18.420Z,1011.59
2018-08-17T09:34:57.372Z,1011.58
2018-08-17T09:36:18.293Z,1011.52
2018-08-17T09:36:57.245Z,1011.59
2018-08-17T09:37:57.174Z,1011.64
2018-08-17T09:39:18.102Z,1011.61
2018-08-17T09:39:57.044Z,1011.63
2018-08-17T09:41:17.964Z,1011.60
2018-08-17T09:41:56.950Z,1011.59
2018-08-17T09:42:56.865Z,1011.60
2018-08-17T09:44:17.772Z,1011.54
2018-08-17T09:44:56.731Z,1011.62
2018-08-17T09:46:17.651Z,1011.59
2018-08-17T09:46:56.599Z,1011.64
2018-08-17T09:47:56.544Z,1011.69
2018-08-17T09:49:17.463Z,1011.82
2018-08-17T09:49:56.421Z,1011.76
2018-08-17T09:51:17.357Z,1011.77
2018-08-17T09:51:56.291Z,1011.71
2018-08-17T09:52:56.230Z,1011.72
2018-08-17T09:54:17.154Z,1011.73
2018-08-17T09:54:56.108Z,1011.73
2018-08-17T09:56:17.032Z,1011.75
2018-08-17T09:56:55.986Z,1011.78
2018-08-17T09:57:55.931Z,1011.78
2018-08-17T09:59:16.854Z,1011.79
2018-08-17T09:59:55.804Z,1011.79
2018-08-17T10:01:16.737Z,1011.87
2018-08-17T10:01:55.689Z,1011.82
2018-08-17T10:02:55.624Z,1011.80
2018-08-17T10:04:16.632Z,1011.86
2018-08-17T10:04:55.503Z,1011.90
2018-08-17T10:06:16.432Z,1011.81
2018-08-17T10:06:55.391Z,1011.83
2018-08-17T10:07:55.323Z,1011.86
2018-08-17T10:09:16.260Z,1011.85
2018-08-17T10:09:55.210Z,1011.84
2018-08-17T10:11:16.131Z,1011.91
2018-08-17T10:11:55.089Z,1011.78
2018-08-17T10:12:55.028Z,1011.87
2018-08-17T10:14:15.962Z,1011.91
2018-08-17T10:14:54.945Z,1011.87
2018-08-17T10:16:15.842Z,1011.88
2018-08-17T10:16:54.790Z,1011.97
2018-08-17T10:17:54.733Z,1012.00
2018-08-17T10:19:15.789Z,1011.92
2018-08-17T10:19:54.637Z,1011.90
2018-08-17T10:21:15.752Z,1011.94
2018-08-17T10:21:54.744Z,1011.92
2018-08-17T10:22:54.434Z,1011.90
2018-08-17T10:24:15.365Z,1011.83
2018-08-17T10:24:54.319Z,1011.85
2018-08-17T10:26:15.238Z,1011.88
2018-08-17T10:26:54.220Z,1011.83
2018-08-17T10:27:54.139Z,1011.90
2018-08-17T10:29:15.057Z,1011.92
2018-08-17T10:29:54.007Z,1011.92
2018-08-17T10:31:14.928Z,1011.98
2018-08-17T10:31:53.881Z,1012.01
2018-08-17T10:32:53.844Z,1012.05
2018-08-17T10:34:14.741Z,1011.99
2018-08-17T10:34:53.693Z,1011.99
2018-08-17T10:36:14.613Z,1012.01
2018-08-17T10:36:53.565Z,1011.98
2018-08-17T10:37:53.512Z,1011.94
2018-08-17T10:39:14.428Z,1012.04
2018-08-17T10:39:53.374Z,1011.99
2018-08-17T10:41:14.295Z,1011.96
2018-08-17T10:41:53.245Z,1012.03
2018-08-17T10:42:53.178Z,1012.00
2018-08-17T10:44:14.103Z,1012.01
2018-08-17T10:44:53.049Z,1012.02
2018-08-17T10:46:13.975Z,1012.01
2018-08-17T10:46:52.917Z,1012.05
2018-08-17T10:47:52.854Z,1012.04
2018-08-17T10:49:13.785Z,1012.01
2018-08-17T10:49:52.721Z,1012.03
2018-08-17T10:51:13.643Z,1012.04
2018-08-17T10:51:52.600Z,1012.04
2018-08-17T10:52:52.524Z,1012.07
2018-08-17T10:54:13.445Z,1012.08
2018-08-17T10:54:52.408Z,1012.06
2018-08-17T10:56:13.355Z,1012.06
2018-08-17T10:56:52.258Z,1012.14
2018-08-17T10:57:52.193Z,1012.19
2018-08-17T10:59:13.118Z,1012.21
2018-08-17T10:59:52.060Z,1012.19
2018-08-17T11:01:12.979Z,1012.21
2018-08-17T11:01:51.930Z,1012.15
2018-08-17T11:02:51.863Z,1012.18
2018-08-17T11:04:12.785Z,1012.18
2018-08-17T11:04:51.734Z,1012.19
2018-08-17T11:06:12.650Z,1012.16
2018-08-17T11:06:51.596Z,1012.17
2018-08-17T11:07:51.532Z,1012.14
2018-08-17T11:09:12.450Z,1012.17
2018-08-17T11:09:51.397Z,1012.19
2018-08-17T11:11:12.314Z,1012.17
2018-08-17T11:11:51.264Z,1012.20
2018-08-17T11:12:51.199Z,1012.20
2018-08-17T11:14:12.137Z,1012.27
2018-08-17T11:14:51.076Z,1012.24
2018-08-17T11:16:11.990Z,1012.26
2018-08-17T11:16:50.939Z,1012.23
2018-08-17T11:17:50.866Z,1012.17
2018-08-17T11:19:11.788Z,1012.21
2018-08-17T11:19:50.732Z,1012.22
2018-08-17T11:21:11.648Z,1012.21
2018-08-17T11:21:50.601Z,1012.21
2018-08-17T11:22:50.550Z,1012.22
2018-08-17T11:24:11.448Z,1012.31
2018-08-17T11:24:50.400Z,1012.34
2018-08-17T11:26:11.324Z,1012.38
2018-08-17T11:26:50.270Z,1012.39
2018-08-17T11:27:50.199Z,1012.42
2018-08-17T11:29:11.120Z,1012.38
2018-08-17T11:29:50.068Z,1012.35
2018-08-17T11:31:10.984Z,1012.36
2018-08-17T11:31:49.935Z,1012.34
2018-08-17T11:32:49.870Z,1012.43
2018-08-17T11:34:10.787Z,1012.40
2018-08-17T11:34:49.734Z,1012.35
2018-08-17T11:36:10.650Z,1012.35
2018-08-17T11:36:49.612Z,1012.38
2018-08-17T11:37:49.533Z,1012.40
2018-08-17T11:39:10.452Z,1012.36
2018-08-17T11:39:49.398Z,1012.36
2018-08-17T11:41:10.328Z,1012.35
2018-08-17T11:41:49.266Z,1012.38
2018-08-17T11:42:49.202Z,1012.40
2018-08-17T11:44:10.125Z,1012.40
2018-08-17T11:44:49.070Z,1012.50
2018-08-17T11:46:09.988Z,1012.38
2018-08-17T11:46:48.947Z,1012.45
2018-08-17T11:47:48.871Z,1012.48
2018-08-17T11:49:09.793Z,1012.45
2018-08-17T11:49:48.740Z,1012.52
2018-08-17T11:51:09.658Z,1012.50
2018-08-17T11:51:48.611Z,1012.52
2018-08-17T11:52:48.542Z,1012.50
2018-08-17T11:54:09.462Z,1012.48
2018-08-17T11:54:48.410Z,1012.52
2018-08-17T11:56:09.325Z,1012.54
2018-08-17T11:56:48.277Z,1012.53
2018-08-17T11:57:48.216Z,1012.49
2018-08-17T11:59:09.131Z,1012.53
2018-08-17T11:59:48.087Z,1012.54
2018-08-17T12:01:09.091Z,1012.49
2018-08-17T12:01:47.957Z,1012.50
2018-08-17T12:02:47.880Z,1012.48
2018-08-17T12:04:08.801Z,1012.46
2018-08-17T12:04:47.753Z,1012.47